createdAt,value
2023-02-11T00:00:02.667Z,98.75
2023-02-11T00:01:02.681Z,98.75
2023-02-11T00:02:02.681Z,98.76
2023-02-11T00:03:02.681Z,98.76
2023-02-11T00:04:02.668Z,98.76
2023-02-11T00:05:02.682Z,98.76
2023-02-11T00:06:02.683Z,98.76
2023-02-11T00:07:02.681Z,98.76
2023-02-11T00:08:02.667Z,98.75
2023-02-11T00:09:02.682Z,98.75
2023-02-11T00:10:02.682Z,98.75
2023-02-11T00:11:02.667Z,98.75
2023-02-11T00:12:02.667Z,98.75
2023-02-11T00:13:02.681Z,98.75
2023-02-11T00:14:02.682Z,98.75
2023-02-11T00:15:02.667Z,98.75
2023-02-11T00:16:02.668Z,98.75
2023-02-11T00:17:02.682Z,98.74
2023-02-11T00:18:02.682Z,98.74
2023-02-11T00:19:02.667Z,98.74
2023-02-11T00:20:02.681Z,98.74
2023-02-11T00:21:02.682Z,98.74
2023-02-11T00:22:02.682Z,98.74
2023-02-11T00:23:02.667Z,98.74
2023-02-11T00:24:02.681Z,98.74
2023-02-11T00:25:02.682Z,98.74
2023-02-11T00:26:02.682Z,98.74
2023-02-11T00:27:02.667Z,98.74
2023-02-11T00:28:02.681Z,98.74
2023-02-11T00:29:02.682Z,98.74
2023-02-11T00:30:02.667Z,98.74
2023-02-11T00:31:02.667Z,98.74
2023-02-11T00:32:02.681Z,98.74
2023-02-11T00:33:02.682Z,98.74
2023-02-11T00:34:02.666Z,98.74
2023-02-11T00:35:02.667Z,98.75
2023-02-11T00:36:02.681Z,98.74
2023-02-11T00:37:02.680Z,98.74
2023-02-11T00:38:02.666Z,98.75
2023-02-11T00:39:02.680Z,98.75
2023-02-11T00:40:02.680Z,98.75
2023-02-11T00:41:02.680Z,98.75
2023-02-11T00:42:02.666Z,98.74
2023-02-11T00:43:02.680Z,98.74
2023-02-11T00:44:02.682Z,98.74
2023-02-11T00:45:02.681Z,98.73
2023-02-11T00:46:02.666Z,98.73
2023-02-11T00:47:02.680Z,98.73
2023-02-11T00:48:02.682Z,98.73
2023-02-11T00:49:02.681Z,98.73
2023-02-11T00:50:02.666Z,98.73
2023-02-11T00:51:02.680Z,98.73
2023-02-11T00:52:02.682Z,98.73
2023-02-11T00:53:02.666Z,98.73
2023-02-11T00:54:02.666Z,98.73
2023-02-11T00:55:02.681Z,98.73
2023-02-11T00:56:02.681Z,98.72
2023-02-11T00:57:02.666Z,98.73
2023-02-11T00:58:02.681Z,98.72
2023-02-11T00:59:02.681Z,98.72
2023-02-11T01:00:02.681Z,98.71
2023-02-11T01:01:02.666Z,98.71
2023-02-11T01:02:02.680Z,98.71
2023-02-11T01:03:02.707Z,98.71
2023-02-11T01:04:02.681Z,98.71
2023-02-11T01:05:02.666Z,98.71
2023-02-11T01:06:02.680Z,98.7
2023-02-11T01:07:02.682Z,98.7
2023-02-11T01:08:02.681Z,98.7
2023-02-11T01:09:02.666Z,98.7
2023-02-11T01:10:02.731Z,98.7
2023-02-11T01:11:02.682Z,98.69
2023-02-11T01:12:02.666Z,98.69
2023-02-11T01:13:02.666Z,98.69
2023-02-11T01:14:02.681Z,98.68
2023-02-11T01:15:02.681Z,98.68
2023-02-11T01:16:02.666Z,98.68
2023-02-11T01:17:02.747Z,98.68
2023-02-11T01:18:02.680Z,98.67
2023-02-11T01:19:02.680Z,98.67
2023-02-11T01:20:02.666Z,98.67
2023-02-11T01:21:02.680Z,98.67
2023-02-11T01:22:02.681Z,98.67
2023-02-11T01:23:02.681Z,98.67
2023-02-11T01:24:02.666Z,98.67
2023-02-11T01:25:02.681Z,98.67
2023-02-11T01:26:02.680Z,98.68
2023-02-11T01:27:02.681Z,98.68
2023-02-11T01:28:02.666Z,98.68
2023-02-11T01:29:19.157Z,98.67
2023-02-11T01:30:02.680Z,98.67
2023-02-11T01:31:02.665Z,98.67
2023-02-11T01:32:02.665Z,98.67
2023-02-11T01:33:02.680Z,98.67
2023-02-11T01:34:02.680Z,98.67
2023-02-11T01:35:02.665Z,98.67
2023-02-11T01:36:02.666Z,98.67
2023-02-11T01:37:02.679Z,98.67
2023-02-11T01:38:02.729Z,98.67
2023-02-11T01:39:02.665Z,98.67
2023-02-11T01:40:02.679Z,98.67
2023-02-11T01:41:02.680Z,98.67
2023-02-11T01:42:02.680Z,98.67
2023-02-11T01:43:02.665Z,98.68
2023-02-11T01:44:02.679Z,98.68
2023-02-11T01:45:02.706Z,98.68
2023-02-11T01:46:02.679Z,98.67
2023-02-11T01:47:02.665Z,98.68
2023-02-11T01:48:02.679Z,98.68
2023-02-11T01:49:02.680Z,98.68
2023-02-11T01:50:02.679Z,98.68
2023-02-11T01:51:02.665Z,98.67
2023-02-11T01:52:02.730Z,98.67
2023-02-11T01:53:02.680Z,98.67
2023-02-11T01:54:02.665Z,98.67
2023-02-11T01:55:02.665Z,98.67
2023-02-11T01:56:02.679Z,98.66
2023-02-11T01:57:02.680Z,98.67
2023-02-11T01:58:02.665Z,98.66
2023-02-11T01:59:02.746Z,98.66
2023-02-11T02:00:02.680Z,98.66
2023-02-11T02:01:02.679Z,98.66
2023-02-11T02:02:02.666Z,98.66
2023-02-11T02:03:02.679Z,98.66
2023-02-11T02:04:02.680Z,98.66
2023-02-11T02:05:02.680Z,98.66
2023-02-11T02:06:02.665Z,98.66
2023-02-11T02:07:02.680Z,98.66
2023-02-11T02:08:02.680Z,98.66
2023-02-11T02:09:02.680Z,98.66
2023-02-11T02:10:02.665Z,98.66
2023-02-11T02:11:02.679Z,98.66
2023-02-11T02:12:02.681Z,98.66
2023-02-11T02:13:02.665Z,98.65
2023-02-11T02:14:02.665Z,98.66
2023-02-11T02:15:02.679Z,98.66
2023-02-11T02:16:02.681Z,98.66
2023-02-11T02:17:02.665Z,98.65
2023-02-11T02:18:02.665Z,98.65
2023-02-11T02:19:02.680Z,98.65
2023-02-11T02:20:02.680Z,98.65
2023-02-11T02:21:02.665Z,98.64
2023-02-11T02:22:02.679Z,98.64
2023-02-11T02:23:02.680Z,98.64
2023-02-11T02:24:02.680Z,98.64
2023-02-11T02:25:02.665Z,98.64
2023-02-11T02:26:02.680Z,98.64
2023-02-11T02:27:02.680Z,98.63
2023-02-11T02:28:02.679Z,98.64
2023-02-11T02:29:02.665Z,98.64
2023-02-11T02:30:02.680Z,98.63
2023-02-11T02:31:02.681Z,98.64
2023-02-11T02:32:02.679Z,98.63
2023-02-11T02:33:02.665Z,98.63
2023-02-11T02:34:02.679Z,98.63
2023-02-11T02:35:02.680Z,98.62
2023-02-11T02:36:02.665Z,98.62
2023-02-11T02:37:02.665Z,98.62
2023-02-11T02:38:02.679Z,98.62
2023-02-11T02:39:02.744Z,98.61
2023-02-11T02:40:02.664Z,98.61
2023-02-11T02:41:02.679Z,98.61
2023-02-11T02:42:02.679Z,98.6
2023-02-11T02:43:02.678Z,98.6
2023-02-11T02:44:02.664Z,98.6
2023-02-11T02:45:02.678Z,98.6
2023-02-11T02:46:02.704Z,98.6
2023-02-11T02:47:02.679Z,98.59
2023-02-11T02:48:02.664Z,98.59
2023-02-11T02:49:02.679Z,98.59
2023-02-11T02:50:02.679Z,98.59
2023-02-11T02:51:02.678Z,98.59
2023-02-11T02:52:02.664Z,98.59
2023-02-11T02:53:02.729Z,98.58
2023-02-11T02:54:02.680Z,98.58
2023-02-11T02:55:02.664Z,98.58
2023-02-11T02:56:02.664Z,98.58
2023-02-11T02:57:02.679Z,98.58
2023-02-11T02:58:02.680Z,98.58
2023-02-11T02:59:02.664Z,98.58
2023-02-11T03:00:02.744Z,98.58
2023-02-11T03:01:02.679Z,98.58
2023-02-11T03:02:02.679Z,98.58
2023-02-11T03:03:02.664Z,98.58
2023-02-11T03:04:02.678Z,98.58
2023-02-11T03:05:02.679Z,98.58
2023-02-11T03:06:02.678Z,98.57
2023-02-11T03:07:02.664Z,98.57
2023-02-11T03:08:02.678Z,98.58
2023-02-11T03:09:19.156Z,98.58
2023-02-11T03:10:02.678Z,98.58
2023-02-11T03:11:02.664Z,98.58
2023-02-11T03:12:02.679Z,98.59
2023-02-11T03:13:02.679Z,98.6
2023-02-11T03:14:02.665Z,98.59
2023-02-11T03:15:02.664Z,98.59
2023-02-11T03:16:02.679Z,98.6
2023-02-11T03:17:02.680Z,98.59
2023-02-11T03:18:02.664Z,98.6
2023-02-11T03:19:02.664Z,98.59
2023-02-11T03:20:02.678Z,98.59
2023-02-11T03:21:02.703Z,98.59
2023-02-11T03:22:02.665Z,98.59
2023-02-11T03:23:02.679Z,98.59
2023-02-11T03:24:02.679Z,98.59
2023-02-11T03:25:02.680Z,98.59
2023-02-11T03:26:02.665Z,98.6
2023-02-11T03:27:02.679Z,98.6
2023-02-11T03:28:02.731Z,98.59
2023-02-11T03:29:02.680Z,98.6
2023-02-11T03:30:02.666Z,98.6
2023-02-11T03:31:02.680Z,98.6
2023-02-11T03:32:02.679Z,98.6
2023-02-11T03:33:02.679Z,98.61
2023-02-11T03:34:02.665Z,98.6
2023-02-11T03:35:02.703Z,98.6
2023-02-11T03:36:02.681Z,98.6
2023-02-11T03:37:02.665Z,98.6
2023-02-11T03:38:02.665Z,98.59
2023-02-11T03:39:02.680Z,98.6
2023-02-11T03:40:02.680Z,98.59
2023-02-11T03:41:02.666Z,98.59
2023-02-11T03:42:02.680Z,98.6
2023-02-11T03:43:02.680Z,98.59
2023-02-11T03:44:02.680Z,98.59
2023-02-11T03:45:02.665Z,98.59
2023-02-11T03:46:02.679Z,98.59
2023-02-11T03:47:02.680Z,98.59
2023-02-11T03:48:02.679Z,98.59
2023-02-11T03:49:02.665Z,98.59
2023-02-11T03:50:02.680Z,98.58
2023-02-11T03:51:02.681Z,98.59
2023-02-11T03:52:02.680Z,98.6
2023-02-11T03:53:02.665Z,98.6
2023-02-11T03:54:02.679Z,98.6
2023-02-11T03:55:02.681Z,98.6
2023-02-11T03:56:02.665Z,98.6
2023-02-11T03:57:02.666Z,98.59
2023-02-11T03:58:02.680Z,98.59
2023-02-11T03:59:02.680Z,98.59
2023-02-11T04:00:02.665Z,98.59
2023-02-11T04:01:02.665Z,98.59
2023-02-11T04:02:02.680Z,98.58
2023-02-11T04:03:02.680Z,98.58
2023-02-11T04:04:02.665Z,98.57
2023-02-11T04:05:02.679Z,98.57
2023-02-11T04:06:02.679Z,98.58
2023-02-11T04:07:02.680Z,98.58
2023-02-11T04:08:02.665Z,98.58
2023-02-11T04:09:02.679Z,98.57
2023-02-11T04:10:02.680Z,98.57
2023-02-11T04:11:02.679Z,98.57
2023-02-11T04:12:02.665Z,98.58
2023-02-11T04:13:02.679Z,98.58
2023-02-11T04:14:02.680Z,98.58
2023-02-11T04:15:02.665Z,98.58
2023-02-11T04:16:02.665Z,98.58
2023-02-11T04:17:02.680Z,98.57
2023-02-11T04:18:02.681Z,98.58
2023-02-11T04:19:02.666Z,98.58
2023-02-11T04:20:02.665Z,98.57
2023-02-11T04:21:02.680Z,98.58
2023-02-11T04:22:02.689Z,98.59
2023-02-11T04:23:02.667Z,98.59
2023-02-11T04:24:02.680Z,98.6
2023-02-11T04:25:02.680Z,98.6
2023-02-11T04:26:02.681Z,98.6
2023-02-11T04:27:02.666Z,98.6
2023-02-11T04:28:02.680Z,98.59
2023-02-11T04:29:02.681Z,98.59
2023-02-11T04:30:02.680Z,98.59
2023-02-11T04:31:02.666Z,98.59
2023-02-11T04:32:02.681Z,98.58
2023-02-11T04:33:02.682Z,98.58
2023-02-11T04:34:02.680Z,98.58
2023-02-11T04:35:02.667Z,98.58
2023-02-11T04:36:02.681Z,98.58
2023-02-11T04:37:02.682Z,98.58
2023-02-11T04:38:02.666Z,98.57
2023-02-11T04:39:02.666Z,98.57
2023-02-11T04:40:02.681Z,98.57
2023-02-11T04:41:02.682Z,98.57
2023-02-11T04:42:02.666Z,98.57
2023-02-11T04:43:02.680Z,98.58
2023-02-11T04:44:02.681Z,98.58
2023-02-11T04:45:02.680Z,98.58
2023-02-11T04:46:02.667Z,98.58
2023-02-11T04:47:02.680Z,98.58
2023-02-11T04:48:02.747Z,98.58
2023-02-11T04:49:19.159Z,98.59
2023-02-11T04:50:02.666Z,98.59
2023-02-11T04:51:02.680Z,98.59
2023-02-11T04:53:02.681Z,98.59
2023-02-11T04:54:02.667Z,98.59
2023-02-11T04:55:02.681Z,98.59
2023-02-11T04:56:02.682Z,98.58
2023-02-11T04:57:02.667Z,98.58
2023-02-11T04:58:02.667Z,98.57
2023-02-11T04:59:02.682Z,98.58
2023-02-11T05:00:02.683Z,98.57
2023-02-11T05:01:02.667Z,98.57
2023-02-11T05:02:02.667Z,98.57
2023-02-11T05:03:02.681Z,98.57
2023-02-11T05:04:02.682Z,98.56
2023-02-11T05:05:02.668Z,98.56
2023-02-11T05:06:02.681Z,98.55
2023-02-11T05:07:02.682Z,98.55
2023-02-11T05:08:02.682Z,98.55
2023-02-11T05:09:02.682Z,98.55
2023-02-11T05:10:02.681Z,98.54
2023-02-11T05:11:02.682Z,98.54
2023-02-11T05:12:02.682Z,98.54
2023-02-11T05:13:02.667Z,98.54
2023-02-11T05:14:02.681Z,98.54
2023-02-11T05:15:02.683Z,98.54
2023-02-11T05:16:02.667Z,98.54
2023-02-11T05:17:02.667Z,98.54
2023-02-11T05:18:02.682Z,98.54
2023-02-11T05:19:02.682Z,98.54
2023-02-11T05:20:02.668Z,98.54
2023-02-11T05:21:02.667Z,98.55
2023-02-11T05:22:02.681Z,98.55
2023-02-11T05:23:02.682Z,98.54
2023-02-11T05:24:02.668Z,98.54
2023-02-11T05:25:02.683Z,98.54
2023-02-11T05:26:02.683Z,98.54
2023-02-11T05:27:02.683Z,98.55
2023-02-11T05:28:02.668Z,98.55
2023-02-11T05:29:02.682Z,98.55
2023-02-11T05:30:02.684Z,98.55
2023-02-11T05:31:02.682Z,98.54
2023-02-11T05:32:02.669Z,98.54
2023-02-11T05:33:02.682Z,98.54
2023-02-11T05:34:02.684Z,98.54
2023-02-11T05:35:02.683Z,98.53
2023-02-11T05:36:02.668Z,98.54
2023-02-11T05:37:02.682Z,98.54
2023-02-11T05:38:02.682Z,98.54
2023-02-11T05:39:02.669Z,98.54
2023-02-11T05:40:02.669Z,98.54
2023-02-11T05:41:02.683Z,98.53
2023-02-11T05:42:02.684Z,98.54
2023-02-11T05:43:02.668Z,98.54
2023-02-11T05:44:02.682Z,98.53
2023-02-11T05:45:02.683Z,98.53
2023-02-11T05:46:02.682Z,98.53
2023-02-11T05:47:02.668Z,98.53
2023-02-11T05:48:02.682Z,98.53
2023-02-11T05:49:02.709Z,98.52
2023-02-11T05:50:02.682Z,98.52
2023-02-11T05:51:02.669Z,98.52
2023-02-11T05:52:02.682Z,98.52
2023-02-11T05:53:02.684Z,98.52
2023-02-11T05:54:02.683Z,98.52
2023-02-11T05:55:02.669Z,98.52
2023-02-11T05:56:02.684Z,98.52
2023-02-11T05:57:02.684Z,98.52
2023-02-11T05:58:02.669Z,98.53
2023-02-11T05:59:02.669Z,98.53
2023-02-11T06:01:02.684Z,98.53
2023-02-11T06:02:02.669Z,98.53
2023-02-11T06:04:02.684Z,98.53
2023-02-11T06:05:02.683Z,98.53
2023-02-11T06:06:02.669Z,98.53
2023-02-11T06:07:02.684Z,98.53
2023-02-11T06:08:02.684Z,98.54
2023-02-11T06:09:02.683Z,98.54
2023-02-11T06:10:02.669Z,98.54
2023-02-11T06:11:02.684Z,98.54
2023-02-11T06:12:02.684Z,98.54
2023-02-11T06:13:02.683Z,98.54
2023-02-11T06:14:02.669Z,98.54
2023-02-11T06:15:02.684Z,98.54
2023-02-11T06:16:02.684Z,98.53
2023-02-11T06:17:02.669Z,98.53
2023-02-11T06:18:02.669Z,98.53
2023-02-11T06:19:02.683Z,98.53
2023-02-11T06:20:02.685Z,98.53
2023-02-11T06:21:02.671Z,98.52
2023-02-11T06:22:02.670Z,98.52
2023-02-11T06:23:02.684Z,98.53
2023-02-11T06:24:02.685Z,98.53
2023-02-11T06:25:02.670Z,98.53
2023-02-11T06:26:02.684Z,98.52
2023-02-11T06:27:02.684Z,98.52
2023-02-11T06:28:02.685Z,98.52
2023-02-11T06:29:19.148Z,98.52
2023-02-11T06:30:02.684Z,98.52
2023-02-11T06:31:02.685Z,98.52
2023-02-11T06:32:02.684Z,98.52
2023-02-11T06:33:02.670Z,98.51
2023-02-11T06:34:02.685Z,98.51
2023-02-11T06:35:02.686Z,98.51
2023-02-11T06:36:02.685Z,98.5
2023-02-11T06:37:02.670Z,98.5
2023-02-11T06:38:02.684Z,98.5
2023-02-11T06:39:02.685Z,98.5
2023-02-11T06:40:02.670Z,98.5
2023-02-11T06:41:02.670Z,98.51
2023-02-11T06:42:02.685Z,98.5
2023-02-11T06:43:02.687Z,98.5
2023-02-11T06:44:02.671Z,98.5
2023-02-11T06:45:02.686Z,98.51
2023-02-11T06:46:02.685Z,98.51
2023-02-11T06:47:02.686Z,98.52
2023-02-11T06:48:02.671Z,98.52
2023-02-11T06:49:02.685Z,98.52
2023-02-11T06:50:02.685Z,98.53
2023-02-11T06:51:02.685Z,98.53
2023-02-11T06:52:02.671Z,98.53
2023-02-11T06:53:02.685Z,98.52
2023-02-11T06:54:02.687Z,98.52
2023-02-11T06:55:02.685Z,98.53
2023-02-11T06:56:02.671Z,98.53
2023-02-11T06:57:02.751Z,98.53
2023-02-11T06:58:02.686Z,98.53
2023-02-11T06:59:02.671Z,98.53
2023-02-11T07:00:02.672Z,98.52
2023-02-11T07:01:02.686Z,98.53
2023-02-11T07:02:02.687Z,98.53
2023-02-11T07:03:02.673Z,98.53
2023-02-11T07:04:02.737Z,98.52
2023-02-11T07:05:02.686Z,98.53
2023-02-11T07:06:02.686Z,98.53
2023-02-11T07:07:02.672Z,98.53
2023-02-11T07:08:02.687Z,98.53
2023-02-11T07:09:02.687Z,98.53
2023-02-11T07:10:02.686Z,98.54
2023-02-11T07:11:02.672Z,98.53
2023-02-11T07:12:02.687Z,98.53
2023-02-11T07:13:02.688Z,98.52
2023-02-11T07:14:02.687Z,98.53
2023-02-11T07:15:02.672Z,98.53
2023-02-11T07:16:02.687Z,98.53
2023-02-11T07:17:02.688Z,98.54
2023-02-11T07:18:02.673Z,98.54
2023-02-11T07:19:02.673Z,98.54
2023-02-11T07:20:02.688Z,98.53
2023-02-11T07:21:02.689Z,98.54
2023-02-11T07:22:02.673Z,98.54
2023-02-11T07:23:02.673Z,98.54
2023-02-11T07:24:02.688Z,98.54
2023-02-11T07:25:02.688Z,98.54
2023-02-11T07:26:02.673Z,98.53
2023-02-11T07:27:02.687Z,98.53
2023-02-11T07:28:02.688Z,98.52
2023-02-11T07:29:02.687Z,98.53
2023-02-11T07:30:02.674Z,98.53
2023-02-11T07:31:02.688Z,98.52
2023-02-11T07:32:02.689Z,98.52
2023-02-11T07:33:02.688Z,98.52
2023-02-11T07:34:02.674Z,98.52
2023-02-11T07:35:02.689Z,98.52
2023-02-11T07:36:02.689Z,98.52
2023-02-11T07:37:02.701Z,98.52
2023-02-11T07:38:02.674Z,98.51
2023-02-11T07:39:02.689Z,98.51
2023-02-11T07:40:02.689Z,98.5
2023-02-11T07:41:02.674Z,98.5
2023-02-11T07:42:02.674Z,98.5
2023-02-11T07:43:02.690Z,98.5
2023-02-11T07:44:02.691Z,98.51
2023-02-11T07:45:02.675Z,98.52
2023-02-11T07:46:02.690Z,98.52
2023-02-11T07:47:02.690Z,98.52
2023-02-11T07:48:02.689Z,98.52
2023-02-11T07:49:02.675Z,98.52
2023-02-11T07:50:02.690Z,98.52
2023-02-11T07:51:02.690Z,98.52
2023-02-11T07:52:02.690Z,98.51
2023-02-11T07:53:02.675Z,98.51
2023-02-11T07:54:02.690Z,98.51
2023-02-11T07:55:02.691Z,98.51
2023-02-11T07:56:02.690Z,98.51
2023-02-11T07:57:02.676Z,98.51
2023-02-11T07:58:02.756Z,98.51
2023-02-11T07:59:02.692Z,98.52
2023-02-11T08:00:02.676Z,98.51
2023-02-11T08:01:02.676Z,98.52
2023-02-11T08:02:02.691Z,98.52
2023-02-11T08:03:02.692Z,98.52
2023-02-11T08:04:02.676Z,98.52
2023-02-11T08:05:02.757Z,98.52
2023-02-11T08:06:02.691Z,98.53
2023-02-11T08:07:02.691Z,98.53
2023-02-11T08:08:02.676Z,98.52
2023-02-11T08:09:19.169Z,98.52
2023-02-11T08:10:02.691Z,98.52
2023-02-11T08:11:02.692Z,98.52
2023-02-11T08:12:02.678Z,98.52
2023-02-11T08:13:02.691Z,98.52
2023-02-11T08:14:02.693Z,98.52
2023-02-11T08:15:02.691Z,98.52
2023-02-11T08:16:02.677Z,98.52
2023-02-11T08:17:02.691Z,98.52
2023-02-11T08:18:02.692Z,98.52
2023-02-11T08:19:02.677Z,98.53
2023-02-11T08:20:02.678Z,98.53
2023-02-11T08:21:02.692Z,98.52
2023-02-11T08:22:02.694Z,98.52
2023-02-11T08:23:02.678Z,98.53
2023-02-11T08:24:02.678Z,98.53
2023-02-11T08:25:02.692Z,98.53
2023-02-11T08:26:02.716Z,98.53
2023-02-11T08:27:02.678Z,98.53
2023-02-11T08:28:02.692Z,98.53
2023-02-11T08:29:02.693Z,98.53
2023-02-11T08:30:02.693Z,98.54
2023-02-11T08:31:02.678Z,98.53
2023-02-11T08:32:02.694Z,98.53
2023-02-11T08:33:02.745Z,98.53
2023-02-11T08:34:02.693Z,98.53
2023-02-11T08:35:02.680Z,98.52
2023-02-11T08:36:02.694Z,98.52
2023-02-11T08:37:02.694Z,98.52
2023-02-11T08:38:02.693Z,98.52
2023-02-11T08:39:02.679Z,98.52
2023-02-11T08:40:02.717Z,98.52
2023-02-11T08:41:02.695Z,98.52
2023-02-11T08:42:02.679Z,98.53
2023-02-11T08:43:02.681Z,98.53
2023-02-11T08:44:02.695Z,98.53
2023-02-11T08:45:02.696Z,98.53
2023-02-11T08:46:02.680Z,98.53
2023-02-11T08:47:02.745Z,98.53
2023-02-11T08:48:02.695Z,98.53
2023-02-11T08:49:02.694Z,98.53
2023-02-11T08:50:02.680Z,98.53
2023-02-11T08:51:02.694Z,98.53
2023-02-11T08:52:02.694Z,98.53
2023-02-11T08:53:02.694Z,98.53
2023-02-11T08:54:02.681Z,98.52
2023-02-11T08:55:02.696Z,98.52
2023-02-11T08:56:02.697Z,98.52
2023-02-11T08:57:02.695Z,98.52
2023-02-11T08:58:02.681Z,98.52
2023-02-11T08:59:02.696Z,98.52
2023-02-11T09:00:02.697Z,98.52
2023-02-11T09:01:02.682Z,98.52
2023-02-11T09:02:02.681Z,98.51
2023-02-11T09:03:02.696Z,98.51
2023-02-11T09:04:02.697Z,98.51
2023-02-11T09:05:02.682Z,98.51
2023-02-11T09:06:02.682Z,98.51
2023-02-11T09:07:02.696Z,98.51
2023-02-11T09:08:02.698Z,98.5
2023-02-11T09:09:02.682Z,98.5
2023-02-11T09:10:02.696Z,98.5
2023-02-11T09:11:02.696Z,98.5
2023-02-11T09:12:02.697Z,98.49
2023-02-11T09:13:02.684Z,98.49
2023-02-11T09:14:02.697Z,98.49
2023-02-11T09:15:02.698Z,98.5
2023-02-11T09:16:02.698Z,98.49
2023-02-11T09:17:02.683Z,98.49
2023-02-11T09:18:02.698Z,98.49
2023-02-11T09:19:02.699Z,98.49
2023-02-11T09:20:02.698Z,98.49
2023-02-11T09:21:02.684Z,98.49
2023-02-11T09:22:02.699Z,98.49
2023-02-11T09:23:02.699Z,98.48
2023-02-11T09:24:02.685Z,98.48
2023-02-11T09:25:02.685Z,98.48
2023-02-11T09:26:02.699Z,98.48
2023-02-11T09:27:02.700Z,98.48
2023-02-11T09:28:02.685Z,98.48
2023-02-11T09:29:02.700Z,98.48
2023-02-11T09:30:02.700Z,98.49
2023-02-11T09:31:02.700Z,98.49
2023-02-11T09:32:02.685Z,98.5
2023-02-11T09:33:02.699Z,98.5
2023-02-11T09:34:02.725Z,98.49
2023-02-11T09:35:02.699Z,98.5
2023-02-11T09:36:02.687Z,98.5
2023-02-11T09:37:02.701Z,98.5
2023-02-11T09:38:02.702Z,98.5
2023-02-11T09:39:02.700Z,98.49
2023-02-11T09:40:02.687Z,98.49
2023-02-11T09:41:02.751Z,98.49
2023-02-11T09:42:02.702Z,98.48
2023-02-11T09:43:02.687Z,98.48
2023-02-11T09:44:02.687Z,98.48
2023-02-11T09:45:02.701Z,98.48
2023-02-11T09:46:02.703Z,98.48
2023-02-11T09:47:02.687Z,98.48
2023-02-11T09:48:02.751Z,98.48
2023-02-11T09:49:19.180Z,98.48
2023-02-11T09:50:02.702Z,98.49
2023-02-11T09:51:02.688Z,98.49
2023-02-11T09:52:02.702Z,98.47
2023-02-11T09:53:02.702Z,98.47
2023-02-11T09:54:02.703Z,98.46
2023-02-11T09:55:02.689Z,98.46
2023-02-11T09:56:02.704Z,98.46
2023-02-11T09:57:02.704Z,98.46
2023-02-11T09:58:02.705Z,98.45
2023-02-11T09:59:02.690Z,98.44
2023-02-11T10:00:02.704Z,98.45
2023-02-11T10:01:02.706Z,98.45
2023-02-11T10:02:02.711Z,98.45
2023-02-11T10:03:02.692Z,98.46
2023-02-11T10:04:02.706Z,98.47
2023-02-11T10:05:02.706Z,98.48
2023-02-11T10:06:02.692Z,98.48
2023-02-11T10:07:02.692Z,98.49
2023-02-11T10:08:02.707Z,98.49
2023-02-11T10:09:02.730Z,98.49
2023-02-11T10:10:02.694Z,98.49
2023-02-11T10:11:02.707Z,98.49
2023-02-11T10:12:02.707Z,98.48
2023-02-11T10:13:02.708Z,98.48
2023-02-11T10:15:02.708Z,98.48
2023-02-11T10:16:02.760Z,98.48
2023-02-11T10:17:02.708Z,98.49
2023-02-11T10:18:02.696Z,98.49
2023-02-11T10:19:02.709Z,98.5
2023-02-11T10:20:02.711Z,98.5
2023-02-11T10:21:02.709Z,98.5
2023-02-11T10:22:02.695Z,98.5
2023-02-11T10:23:02.718Z,98.5
2023-02-11T10:24:02.711Z,98.49
2023-02-11T10:25:02.696Z,98.49
2023-02-11T10:26:02.696Z,98.49
2023-02-11T10:27:02.712Z,98.49
2023-02-11T10:28:02.713Z,98.49
2023-02-11T10:29:02.697Z,98.49
2023-02-11T10:30:02.761Z,98.49
2023-02-11T10:31:02.712Z,98.48
2023-02-11T10:32:02.712Z,98.48
2023-02-11T10:33:02.698Z,98.48
2023-02-11T10:34:02.712Z,98.49
2023-02-11T10:35:02.713Z,98.49
2023-02-11T10:36:02.712Z,98.49
2023-02-11T10:37:02.699Z,98.49
2023-02-11T10:38:02.713Z,98.48
2023-02-11T10:39:02.715Z,98.49
2023-02-11T10:40:02.713Z,98.49
2023-02-11T10:41:02.700Z,98.48
2023-02-11T10:42:02.714Z,98.48
2023-02-11T10:43:02.715Z,98.48
2023-02-11T10:44:02.700Z,98.48
2023-02-11T10:45:02.700Z,98.48
2023-02-11T10:46:02.715Z,98.48
2023-02-11T10:47:02.716Z,98.48
2023-02-11T10:48:02.701Z,98.47
2023-02-11T10:49:02.701Z,98.47
2023-02-11T10:50:02.716Z,98.47
2023-02-11T10:51:02.716Z,98.47
2023-02-11T10:52:02.701Z,98.47
2023-02-11T10:53:02.717Z,98.48
2023-02-11T10:54:02.717Z,98.48
2023-02-11T10:55:02.716Z,98.48
2023-02-11T10:56:02.702Z,98.48
2023-02-11T10:57:02.716Z,98.48
2023-02-11T10:58:02.719Z,98.48
2023-02-11T10:59:02.717Z,98.48
2023-02-11T11:00:02.704Z,98.48
2023-02-11T11:01:02.717Z,98.48
2023-02-11T11:02:02.718Z,98.47
2023-02-11T11:03:02.720Z,98.47
2023-02-11T11:04:02.704Z,98.47
2023-02-11T11:05:02.718Z,98.47
2023-02-11T11:06:02.720Z,98.47
2023-02-11T11:07:02.704Z,98.47
2023-02-11T11:08:02.705Z,98.47
2023-02-11T11:09:02.719Z,98.47
2023-02-11T11:10:02.743Z,98.46
2023-02-11T11:11:02.705Z,98.45
2023-02-11T11:12:02.719Z,98.44
2023-02-11T11:13:02.721Z,98.43
2023-02-11T11:14:02.721Z,98.43
2023-02-11T11:15:02.706Z,98.43
2023-02-11T11:16:02.720Z,98.42
2023-02-11T11:17:02.774Z,98.41
2023-02-11T11:18:02.722Z,98.41
2023-02-11T11:19:02.707Z,98.4
2023-02-11T11:20:02.722Z,98.4
2023-02-11T11:21:02.723Z,98.4
2023-02-11T11:22:02.722Z,98.4
2023-02-11T11:23:02.709Z,98.4
2023-02-11T11:24:02.747Z,98.4
2023-02-11T11:25:02.724Z,98.39
2023-02-11T11:26:02.711Z,98.39
2023-02-11T11:27:02.711Z,98.38
2023-02-11T11:28:02.725Z,98.38
2023-02-11T11:29:19.203Z,98.37
2023-02-11T11:30:02.711Z,98.37
2023-02-11T11:31:02.792Z,98.36
2023-02-11T11:32:02.727Z,98.36
2023-02-11T11:33:02.727Z,98.36
2023-02-11T11:34:02.713Z,98.37
2023-02-11T11:35:02.727Z,98.37
2023-02-11T11:36:02.728Z,98.36
2023-02-11T11:37:02.728Z,98.36
2023-02-11T11:38:02.714Z,98.36
2023-02-11T11:39:02.729Z,98.36
2023-02-11T11:40:02.730Z,98.36
2023-02-11T11:41:02.729Z,98.36
2023-02-11T11:42:02.716Z,98.36
2023-02-11T11:43:02.730Z,98.36
2023-02-11T11:44:02.732Z,98.36
2023-02-11T11:45:02.717Z,98.36
2023-02-11T11:46:02.717Z,98.35
2023-02-11T11:47:02.733Z,98.35
2023-02-11T11:48:02.733Z,98.35
2023-02-11T11:49:02.718Z,98.35
2023-02-11T11:50:02.719Z,98.36
2023-02-11T11:51:02.734Z,98.35
2023-02-11T11:52:02.734Z,98.36
2023-02-11T11:53:02.720Z,98.36
2023-02-11T11:54:02.736Z,98.37
2023-02-11T11:55:02.736Z,98.37
2023-02-11T11:56:02.735Z,98.37
2023-02-11T11:57:02.722Z,98.37
2023-02-11T11:58:02.736Z,98.38
2023-02-11T11:59:02.738Z,98.38
2023-02-11T12:01:02.725Z,98.37
2023-02-11T12:02:02.738Z,98.37
2023-02-11T12:03:02.740Z,98.38
2023-02-11T12:04:02.745Z,98.37
2023-02-11T12:05:02.725Z,98.37
2023-02-11T12:06:02.741Z,98.37
2023-02-11T12:07:02.742Z,98.37
2023-02-11T12:08:02.726Z,98.38
2023-02-11T12:09:02.727Z,98.38
2023-02-11T12:10:02.741Z,98.38
2023-02-11T12:11:02.766Z,98.39
2023-02-11T12:12:02.728Z,98.38
2023-02-11T12:13:02.742Z,98.39
2023-02-11T12:14:02.744Z,98.38
2023-02-11T12:15:02.743Z,98.38
2023-02-11T12:16:02.730Z,98.38
2023-02-11T12:17:02.744Z,98.38
2023-02-11T12:18:02.796Z,98.39
2023-02-11T12:19:02.745Z,98.4
2023-02-11T12:20:02.732Z,98.4
2023-02-11T12:21:02.745Z,98.4
2023-02-11T12:22:02.748Z,98.4
2023-02-11T12:23:02.747Z,98.4
2023-02-11T12:24:02.732Z,98.41
2023-02-11T12:25:02.772Z,98.41
2023-02-11T12:26:02.749Z,98.4
2023-02-11T12:27:02.733Z,98.4
2023-02-11T12:28:02.734Z,98.4
2023-02-11T12:29:02.749Z,98.4
2023-02-11T12:30:02.750Z,98.39
2023-02-11T12:31:02.734Z,98.39
2023-02-11T12:32:02.773Z,98.4
2023-02-11T12:33:02.750Z,98.39
2023-02-11T12:34:02.749Z,98.39
2023-02-11T12:35:02.736Z,98.39
2023-02-11T12:36:02.750Z,98.37
2023-02-11T12:37:02.750Z,98.37
2023-02-11T12:38:02.751Z,98.36
2023-02-11T12:39:02.737Z,98.36
2023-02-11T12:40:02.752Z,98.35
2023-02-11T12:41:02.753Z,98.35
2023-02-11T12:42:02.752Z,98.35
2023-02-11T12:43:02.739Z,98.36
2023-02-11T12:44:02.753Z,98.36
2023-02-11T12:45:02.755Z,98.37
2023-02-11T12:46:02.740Z,98.37
2023-02-11T12:47:02.740Z,98.37
2023-02-11T12:48:02.756Z,98.38
2023-02-11T12:49:02.756Z,98.38
2023-02-11T12:50:02.741Z,98.38
2023-02-11T12:51:02.742Z,98.38
2023-02-11T12:52:02.757Z,98.39
2023-02-11T12:53:02.757Z,98.39
2023-02-11T12:54:02.743Z,98.39
2023-02-11T12:55:02.757Z,98.39
2023-02-11T12:56:02.758Z,98.39
2023-02-11T12:57:02.759Z,98.39
2023-02-11T12:58:02.744Z,98.38
2023-02-11T12:59:02.758Z,98.39
2023-02-11T13:00:02.760Z,98.39